createdAt,value
2018-03-18T00:00:22.649Z,94429.39
2018-03-18T00:02:51.675Z,94432.95
2018-03-18T00:05:19.931Z,94429.31
2018-03-18T00:07:48.969Z,94436.77
2018-03-18T00:10:17.228Z,94426.10
2018-03-18T00:12:46.247Z,94433.69
2018-03-18T00:15:14.520Z,94421.01
2018-03-18T00:17:44.290Z,94431.37
2018-03-18T00:20:12.553Z,94434.20
2018-03-18T00:22:40.806Z,94447.03
2018-03-18T00:25:09.092Z,94452.77
2018-03-18T00:27:37.352Z,94441.53
2018-03-18T00:30:05.614Z,94445.13
2018-03-18T00:32:33.875Z,94437.66
2018-03-18T00:35:02.919Z,94449.20
2018-03-18T00:37:31.184Z,94444.29
2018-03-18T00:39:59.450Z,94446.22
2018-03-18T00:42:27.707Z,94450.63
2018-03-18T00:44:55.963Z,94445.19
2018-03-18T00:47:24.222Z,94458.58
2018-03-18T00:49:53.255Z,94441.91
2018-03-18T00:52:21.515Z,94447.79
2018-03-18T00:54:50.555Z,94449.82
2018-03-18T00:57:18.884Z,94444.70
2018-03-18T00:59:47.835Z,94437.75
2018-03-18T01:02:16.112Z,94444.67
2018-03-18T01:04:45.142Z,94430.52
2018-03-18T01:07:13.399Z,94446.44
2018-03-18T01:09:41.686Z,94447.07
2018-03-18T01:12:10.702Z,94439.63
2018-03-18T01:14:39.744Z,94453.30
2018-03-18T01:17:08.002Z,94443.32
2018-03-18T01:19:36.267Z,94443.59
2018-03-18T01:22:05.291Z,94442.64
2018-03-18T01:24:34.343Z,94431.58
2018-03-18T01:27:02.608Z,94430.17
2018-03-18T01:29:30.888Z,94418.11
2018-03-18T01:31:59.147Z,94432.53
2018-03-18T01:34:27.413Z,94429.95
2018-03-18T01:36:55.680Z,94432.06
2018-03-18T01:39:24.711Z,94428.02
2018-03-18T01:41:52.967Z,94423.09
2018-03-18T01:44:21.241Z,94423.80
2018-03-18T01:46:49.500Z,94427.81
2018-03-18T01:49:18.530Z,94432.70
2018-03-18T01:51:46.782Z,94424.90
2018-03-18T01:54:15.051Z,94415.40
2018-03-18T01:56:43.306Z,94421.70
2018-03-18T01:59:11.571Z,94416.38
2018-03-18T02:01:39.831Z,94412.55
2018-03-18T02:04:08.110Z,94417.72
2018-03-18T02:06:36.374Z,94408.52
2018-03-18T02:09:04.672Z,94413.13
2018-03-18T02:11:32.932Z,94407.91
2018-03-18T02:14:01.967Z,94412.31
2018-03-18T02:16:30.215Z,94409.58
2018-03-18T02:18:58.485Z,94410.33
2018-03-18T02:21:27.513Z,94417.28
2018-03-18T02:23:55.787Z,94417.51
2018-03-18T02:26:24.806Z,94420.80
2018-03-18T02:28:53.843Z,94415.00
2018-03-18T02:31:22.095Z,94403.09
2018-03-18T02:33:50.373Z,94415.34
2018-03-18T02:36:19.428Z,94416.84
2018-03-18T02:38:47.683Z,94416.05
2018-03-18T02:41:15.961Z,94420.59
2018-03-18T02:43:44.970Z,94410.41
2018-03-18T02:46:13.248Z,94426.41
2018-03-18T02:48:42.269Z,94417.97
2018-03-18T02:51:10.526Z,94418.38
2018-03-18T02:53:38.788Z,94423.14
2018-03-18T02:56:07.061Z,94415.80
2018-03-18T02:58:35.309Z,94423.45
2018-03-18T03:01:04.343Z,94427.91
2018-03-18T03:03:32.599Z,94423.52
2018-03-18T03:06:01.633Z,94410.22
2018-03-18T03:08:29.905Z,94415.59
2018-03-18T03:10:58.870Z,94416.98
2018-03-18T03:13:27.136Z,94416.10
2018-03-18T03:15:55.398Z,94409.06
2018-03-18T03:18:23.663Z,94405.37
2018-03-18T03:20:52.704Z,94412.31
2018-03-18T03:23:20.959Z,94411.77
2018-03-18T03:25:49.995Z,94412.44
2018-03-18T03:28:18.257Z,94413.08
2018-03-18T03:30:47.289Z,94407.31
2018-03-18T03:33:15.544Z,94405.28
2018-03-18T03:35:44.570Z,94412.25
2018-03-18T03:38:12.843Z,94411.69
2018-03-18T03:40:41.875Z,94414.42
2018-03-18T03:43:10.126Z,94409.47
2018-03-18T03:45:39.164Z,94408.70
2018-03-18T03:48:07.427Z,94409.03
2018-03-18T03:50:36.454Z,94404.91
2018-03-18T03:53:04.728Z,94380.19
2018-03-18T03:55:33.755Z,94400.42
2018-03-18T03:58:02.020Z,94400.17
2018-03-18T04:00:31.059Z,94405.86
2018-03-18T04:02:59.316Z,94392.49
2018-03-18T04:05:28.358Z,94399.53
2018-03-18T04:07:56.619Z,94406.02
2018-03-18T04:10:24.899Z,94369.91
2018-03-18T04:12:53.915Z,94382.16
2018-03-18T04:15:22.183Z,94388.58
2018-03-18T04:17:51.209Z,94406.91
2018-03-18T04:20:19.482Z,94385.38
2018-03-18T04:22:48.503Z,94390.78
2018-03-18T04:25:16.771Z,94397.22
2018-03-18T04:27:45.791Z,94396.45
2018-03-18T04:30:14.051Z,94390.23
2018-03-18T04:32:42.313Z,94394.59
2018-03-18T04:35:10.574Z,94389.42
2018-03-18T04:37:38.843Z,94389.20
2018-03-18T04:40:07.111Z,94390.83
2018-03-18T04:42:36.134Z,94401.32
2018-03-18T04:45:05.172Z,94397.17
2018-03-18T04:47:33.433Z,94390.61
2018-03-18T04:50:01.702Z,94385.05
2018-03-18T04:52:30.732Z,94391.48
2018-03-18T04:54:59.003Z,94380.34
2018-03-18T04:57:27.267Z,94389.42
2018-03-18T04:59:55.543Z,94387.23
2018-03-18T05:02:23.798Z,94383.36
2018-03-18T05:04:52.064Z,94388.36
2018-03-18T05:07:20.324Z,94397.48
2018-03-18T05:09:48.592Z,94393.52
2018-03-18T05:12:16.847Z,94390.89
2018-03-18T05:14:45.120Z,94377.29
2018-03-18T05:17:13.374Z,94385.36
2018-03-18T05:19:41.633Z,94382.25
2018-03-18T05:22:09.917Z,94382.22
2018-03-18T05:24:38.176Z,94376.64
2018-03-18T05:27:06.449Z,94381.73
2018-03-18T05:29:35.458Z,94385.89
2018-03-18T05:32:03.730Z,94398.00
2018-03-18T05:34:32.747Z,94407.84
2018-03-18T05:37:01.779Z,94402.42
2018-03-18T05:39:30.039Z,94391.55
2018-03-18T05:41:59.075Z,94401.14
2018-03-18T05:44:27.330Z,94404.52
2018-03-18T05:46:56.434Z,94408.37
2018-03-18T05:49:25.492Z,94404.74
2018-03-18T05:51:53.731Z,94408.02
2018-03-18T05:54:21.996Z,94406.97
2018-03-18T05:56:50.268Z,94416.16
2018-03-18T05:59:19.303Z,94402.08
2018-03-18T06:01:47.567Z,94423.03
2018-03-18T06:04:15.818Z,94402.01
2018-03-18T06:06:44.086Z,94422.15
2018-03-18T06:09:13.107Z,94427.34
2018-03-18T06:11:41.375Z,94432.19
2018-03-18T06:14:10.397Z,94436.83
2018-03-18T06:16:38.663Z,94438.81
2018-03-18T06:19:07.688Z,94452.37
2018-03-18T06:21:35.955Z,94448.22
2018-03-18T06:24:04.990Z,94446.16
2018-03-18T06:26:33.256Z,94453.88
2018-03-18T06:29:02.279Z,94462.59
2018-03-18T06:31:30.632Z,94465.50
2018-03-18T06:33:58.834Z,94462.70
2018-03-18T06:36:27.910Z,94457.63
2018-03-18T06:38:56.123Z,94464.64
2018-03-18T06:41:24.405Z,94449.76
2018-03-18T06:43:52.664Z,94459.34
2018-03-18T06:46:20.932Z,94466.67
2018-03-18T06:48:49.187Z,94463.15
2018-03-18T06:51:18.224Z,94466.84
2018-03-18T06:53:46.478Z,94475.59
2018-03-18T06:56:15.510Z,94478.02
2018-03-18T06:58:43.762Z,94473.45
2018-03-18T07:01:12.027Z,94494.55
2018-03-18T07:03:40.299Z,94487.60
2018-03-18T07:06:08.555Z,94490.13
2018-03-18T07:08:36.821Z,94492.76
2018-03-18T07:11:05.846Z,94502.45
2018-03-18T07:13:34.104Z,94503.74
2018-03-18T07:16:02.367Z,94509.16
2018-03-18T07:18:30.628Z,94501.65
2018-03-18T07:20:58.892Z,94513.94
2018-03-18T07:23:27.918Z,94505.66
2018-03-18T07:25:56.187Z,94509.78
2018-03-18T07:28:25.211Z,94520.73
2018-03-18T07:30:53.468Z,94511.78
2018-03-18T07:33:21.723Z,94501.41
2018-03-18T07:35:49.982Z,94515.13
2018-03-18T07:38:18.256Z,94498.36
2018-03-18T07:40:46.520Z,94504.73
2018-03-18T07:43:15.538Z,94510.81
2018-03-18T07:45:44.581Z,94508.20
2018-03-18T07:48:12.832Z,94501.58
2018-03-18T07:50:41.864Z,94514.00
2018-03-18T07:53:10.120Z,94509.00
2018-03-18T07:55:39.154Z,94494.88
2018-03-18T07:58:07.415Z,94510.45
2018-03-18T08:00:36.450Z,94527.16
2018-03-18T08:03:05.475Z,94533.90
2018-03-18T08:05:33.722Z,94518.09
2018-03-18T08:08:02.774Z,94522.61
2018-03-18T08:10:31.018Z,94517.53
2018-03-18T08:12:59.291Z,94530.70
2018-03-18T08:15:27.548Z,94542.50
2018-03-18T08:17:55.820Z,94543.87
2018-03-18T08:20:24.075Z,94543.67
2018-03-18T08:22:52.344Z,94547.56
2018-03-18T08:25:21.362Z,94556.07
2018-03-18T08:27:50.386Z,94559.59
2018-03-18T08:30:18.663Z,94557.50
2018-03-18T08:32:46.923Z,94563.30
2018-03-18T08:35:15.790Z,94566.95
2018-03-18T08:37:44.049Z,94569.83
2018-03-18T08:40:12.304Z,94583.19
2018-03-18T08:42:40.576Z,94567.80
2018-03-18T08:45:08.835Z,94584.78
2018-03-18T08:47:37.100Z,94575.48
2018-03-18T08:50:05.351Z,94572.36
2018-03-18T08:52:33.623Z,94584.15
2018-03-18T08:55:01.870Z,94587.81
2018-03-18T08:57:30.159Z,94569.67
2018-03-18T08:59:58.410Z,94571.44
2018-03-18T09:02:26.675Z,94574.75
2018-03-18T09:04:54.937Z,94579.80
2018-03-18T09:07:23.203Z,94577.73
2018-03-18T09:09:51.471Z,94575.28
2018-03-18T09:12:20.510Z,94572.39
2018-03-18T09:14:48.764Z,94564.16
2018-03-18T09:17:17.798Z,94580.09
2018-03-18T09:19:46.052Z,94585.60
2018-03-18T09:22:14.306Z,94582.52
2018-03-18T09:24:42.567Z,94598.11
2018-03-18T09:27:10.829Z,94597.23
2018-03-18T09:29:39.851Z,94595.95
2018-03-18T09:32:08.124Z,94589.99
2018-03-18T09:34:37.146Z,94595.62
2018-03-18T09:37:05.403Z,94599.95
2018-03-18T09:39:34.422Z,94602.59
2018-03-18T09:42:03.456Z,94603.08
2018-03-18T09:44:31.706Z,94607.80
2018-03-18T09:47:00.742Z,94593.19
2018-03-18T09:49:28.999Z,94589.24
2018-03-18T09:51:57.264Z,94588.63
2018-03-18T09:54:25.515Z,94578.41
2018-03-18T09:56:53.782Z,94597.32
